sensor_id;sensor_type;location;lat;lon;timestamp;temperature;humidity
21662;DHT22;10992;48.170;8.596;2022-09-03T00:01:28;15.10;99.90
21662;DHT22;10992;48.170;8.596;2022-09-03T00:10:20;14.90;99.90
21662;DHT22;10992;48.170;8.596;2022-09-03T00:12:50;14.80;99.90
21662;DHT22;10992;48.170;8.596;2022-09-03T00:15:21;14.80;99.90
21662;DHT22;10992;48.170;8.596;2022-09-03T00:17:56;14.70;99.90
21662;DHT22;10992;48.170;8.596;2022-09-03T00:20:32;14.70;99.90
21662;DHT22;10992;48.170;8.596;2022-09-03T00:23:04;14.80;99.90
21662;DHT22;10992;48.170;8.596;2022-09-03T00:25:39;14.80;99.90
21662;DHT22;10992;48.170;8.596;2022-09-03T00:28:15;14.80;99.90
21662;DHT22;10992;48.170;8.596;2022-09-03T00:30:46;14.80;99.90
21662;DHT22;10992;48.170;8.596;2022-09-03T00:33:22;14.70;99.90
21662;DHT22;10992;48.170;8.596;2022-09-03T00:38:30;14.70;99.90
21662;DHT22;10992;48.170;8.596;2022-09-03T00:46:36;14.60;99.90
21662;DHT22;10992;48.170;8.596;2022-09-03T00:55:03;14.50;99.90
21662;DHT22;10992;48.170;8.596;2022-09-03T01:00:19;14.50;99.90
21662;DHT22;10992;48.170;8.596;2022-09-03T01:13:27;14.40;99.90
21662;DHT22;10992;48.170;8.596;2022-09-03T01:16:31;14.40;99.90
21662;DHT22;10992;48.170;8.596;2022-09-03T01:19:16;14.40;99.90
21662;DHT22;10992;48.170;8.596;2022-09-03T01:33:28;14.40;99.90
21662;DHT22;10992;48.170;8.596;2022-09-03T01:36:07;14.40;99.90
21662;DHT22;10992;48.170;8.596;2022-09-03T01:38:51;14.40;99.90
21662;DHT22;10992;48.170;8.596;2022-09-03T01:44:58;14.30;99.90
21662;DHT22;10992;48.170;8.596;2022-09-03T01:47:42;14.40;99.90
21662;DHT22;10992;48.170;8.596;2022-09-03T01:50:39;14.40;99.90
21662;DHT22;10992;48.170;8.596;2022-09-03T01:58:46;14.40;99.90
21662;DHT22;10992;48.170;8.596;2022-09-03T02:01:44;14.40;99.90
21662;DHT22;10992;48.170;8.596;2022-09-03T02:04:21;14.50;99.90
21662;DHT22;10992;48.170;8.596;2022-09-03T02:06:53;14.40;99.90
21662;DHT22;10992;48.170;8.596;2022-09-03T02:09:23;14.40;99.90
21662;DHT22;10992;48.170;8.596;2022-09-03T02:12:14;14.50;99.90
21662;DHT22;10992;48.170;8.596;2022-09-03T02:14:42;14.50;99.90
21662;DHT22;10992;48.170;8.596;2022-09-03T02:17:10;14.40;99.90
21662;DHT22;10992;48.170;8.596;2022-09-03T02:19:38;14.40;99.90
21662;DHT22;10992;48.170;8.596;2022-09-03T02:22:05;14.40;99.90
21662;DHT22;10992;48.170;8.596;2022-09-03T02:24:32;14.40;99.90
21662;DHT22;10992;48.170;8.596;2022-09-03T02:27:00;14.30;99.90
21662;DHT22;10992;48.170;8.596;2022-09-03T02:29:27;14.30;99.90
21662;DHT22;10992;48.170;8.596;2022-09-03T02:31:54;14.30;99.90
21662;DHT22;10992;48.170;8.596;2022-09-03T02:34:21;14.30;99.90
21662;DHT22;10992;48.170;8.596;2022-09-03T02:36:48;14.30;99.90
21662;DHT22;10992;48.170;8.596;2022-09-03T02:39:15;14.30;99.90
21662;DHT22;10992;48.170;8.596;2022-09-03T02:41:43;14.30;99.90
21662;DHT22;10992;48.170;8.596;2022-09-03T02:44:20;14.30;99.90
21662;DHT22;10992;48.170;8.596;2022-09-03T02:47:03;14.30;99.90
21662;DHT22;10992;48.170;8.596;2022-09-03T02:49:31;14.40;99.90
21662;DHT22;10992;48.170;8.596;2022-09-03T02:52:09;14.40;99.90
21662;DHT22;10992;48.170;8.596;2022-09-03T02:54:38;14.30;99.90
21662;DHT22;10992;48.170;8.596;2022-09-03T02:57:07;14.30;99.90
21662;DHT22;10992;48.170;8.596;2022-09-03T02:59:35;14.30;99.90
21662;DHT22;10992;48.170;8.596;2022-09-03T03:02:03;14.20;99.90
21662;DHT22;10992;48.170;8.596;2022-09-03T03:04:31;14.30;99.90
21662;DHT22;10992;48.170;8.596;2022-09-03T03:06:58;14.30;99.90
21662;DHT22;10992;48.170;8.596;2022-09-03T03:09:25;14.30;99.90
21662;DHT22;10992;48.170;8.596;2022-09-03T03:11:52;14.30;99.90
21662;DHT22;10992;48.170;8.596;2022-09-03T03:14:21;14.40;99.90
21662;DHT22;10992;48.170;8.596;2022-09-03T03:16:49;14.40;99.90
21662;DHT22;10992;48.170;8.596;2022-09-03T03:19:16;14.50;99.90
21662;DHT22;10992;48.170;8.596;2022-09-03T03:21:44;14.40;99.90
21662;DHT22;10992;48.170;8.596;2022-09-03T03:24:11;14.40;99.90
21662;DHT22;10992;48.170;8.596;2022-09-03T03:26:38;14.30;99.90
21662;DHT22;10992;48.170;8.596;2022-09-03T03:29:05;14.30;99.90
21662;DHT22;10992;48.170;8.596;2022-09-03T03:31:32;14.40;99.90
21662;DHT22;10992;48.170;8.596;2022-09-03T03:34:01;14.30;99.90
21662;DHT22;10992;48.170;8.596;2022-09-03T03:36:31;14.30;99.90
21662;DHT22;10992;48.170;8.596;2022-09-03T03:38:59;14.30;99.90
21662;DHT22;10992;48.170;8.596;2022-09-03T03:41:29;14.40;99.90
21662;DHT22;10992;48.170;8.596;2022-09-03T03:44:04;14.40;99.90
21662;DHT22;10992;48.170;8.596;2022-09-03T03:46:34;14.40;99.90
21662;DHT22;10992;48.170;8.596;2022-09-03T03:49:03;14.50;99.90
21662;DHT22;10992;48.170;8.596;2022-09-03T03:51:33;14.40;99.90
21662;DHT22;10992;48.170;8.596;2022-09-03T03:54:00;14.50;99.90
21662;DHT22;10992;48.170;8.596;2022-09-03T03:56:31;14.50;99.90
21662;DHT22;10992;48.170;8.596;2022-09-03T03:58:59;14.50;99.90
21662;DHT22;10992;48.170;8.596;2022-09-03T04:01:27;14.50;99.90
21662;DHT22;10992;48.170;8.596;2022-09-03T04:03:55;14.50;99.90
21662;DHT22;10992;48.170;8.596;2022-09-03T04:06:22;14.60;99.90
21662;DHT22;10992;48.170;8.596;2022-09-03T04:08:50;14.60;99.90
21662;DHT22;10992;48.170;8.596;2022-09-03T04:11:20;14.60;99.90
21662;DHT22;10992;48.170;8.596;2022-09-03T04:13:48;14.50;99.90
21662;DHT22;10992;48.170;8.596;2022-09-03T04:16:18;14.50;99.90
21662;DHT22;10992;48.170;8.596;2022-09-03T04:18:46;14.60;99.90
21662;DHT22;10992;48.170;8.596;2022-09-03T04:21:24;14.50;99.90
21662;DHT22;10992;48.170;8.596;2022-09-03T04:23:54;14.50;99.90
21662;DHT22;10992;48.170;8.596;2022-09-03T04:26:27;14.60;99.90
21662;DHT22;10992;48.170;8.596;2022-09-03T04:28:59;14.50;99.90
21662;DHT22;10992;48.170;8.596;2022-09-03T04:31:27;14.50;99.90
21662;DHT22;10992;48.170;8.596;2022-09-03T04:33:55;14.50;99.90
21662;DHT22;10992;48.170;8.596;2022-09-03T04:36:24;14.50;99.90
21662;DHT22;10992;48.170;8.596;2022-09-03T04:38:53;14.50;99.90
21662;DHT22;10992;48.170;8.596;2022-09-03T04:41:23;14.40;99.90
21662;DHT22;10992;48.170;8.596;2022-09-03T04:43:54;14.40;99.90
21662;DHT22;10992;48.170;8.596;2022-09-03T04:46:25;14.40;99.90
21662;DHT22;10992;48.170;8.596;2022-09-03T04:48:53;14.40;99.90
21662;DHT22;10992;48.170;8.596;2022-09-03T04:51:23;14.40;99.90
21662;DHT22;10992;48.170;8.596;2022-09-03T04:53:55;14.30;99.90
21662;DHT22;10992;48.170;8.596;2022-09-03T04:56:25;14.30;99.90
21662;DHT22;10992;48.170;8.596;2022-09-03T04:58:57;14.30;99.90
21662;DHT22;10992;48.170;8.596;2022-09-03T05:01:29;14.20;99.90
21662;DHT22;10992;48.170;8.596;2022-09-03T05:03:58;14.30;99.90
21662;DHT22;10992;48.170;8.596;2022-09-03T05:06:27;14.20;99.90
21662;DHT22;10992;48.170;8.596;2022-09-03T05:08:55;14.20;99.90
21662;DHT22;10992;48.170;8.596;2022-09-03T05:11:23;14.20;99.90
21662;DHT22;10992;48.170;8.596;2022-09-03T05:13:53;14.20;99.90
21662;DHT22;10992;48.170;8.596;2022-09-03T05:16:22;14.30;99.90
21662;DHT22;10992;48.170;8.596;2022-09-03T05:18:54;14.30;99.90
21662;DHT22;10992;48.170;8.596;2022-09-03T05:21:22;14.30;99.90
21662;DHT22;10992;48.170;8.596;2022-09-03T05:23:51;14.30;99.90
21662;DHT22;10992;48.170;8.596;2022-09-03T05:26:22;14.30;99.90
21662;DHT22;10992;48.170;8.596;2022-09-03T05:28:53;14.30;99.90
21662;DHT22;10992;48.170;8.596;2022-09-03T05:31:22;14.30;99.90
21662;DHT22;10992;48.170;8.596;2022-09-03T05:33:57;14.30;99.90
21662;DHT22;10992;48.170;8.596;2022-09-03T05:36:28;14.30;99.90
21662;DHT22;10992;48.170;8.596;2022-09-03T05:38:58;14.20;99.90
21662;DHT22;10992;48.170;8.596;2022-09-03T05:41:27;14.10;99.90
21662;DHT22;10992;48.170;8.596;2022-09-03T05:43:55;14.10;99.90
21662;DHT22;10992;48.170;8.596;2022-09-03T05:46:32;14.10;99.90
21662;DHT22;10992;48.170;8.596;2022-09-03T05:49:01;14.10;99.90
21662;DHT22;10992;48.170;8.596;2022-09-03T05:51:29;14.10;99.90
21662;DHT22;10992;48.170;8.596;2022-09-03T05:53:57;14.10;99.90
21662;DHT22;10992;48.170;8.596;2022-09-03T05:56:27;14.10;99.90
21662;DHT22;10992;48.170;8.596;2022-09-03T05:58:57;14.20;99.90
21662;DHT22;10992;48.170;8.596;2022-09-03T06:01:32;14.20;99.90
21662;DHT22;10992;48.170;8.596;2022-09-03T06:04:07;14.20;99.90
21662;DHT22;10992;48.170;8.596;2022-09-03T06:06:36;14.30;99.90
21662;DHT22;10992;48.170;8.596;2022-09-03T06:09:07;14.50;99.90
21662;DHT22;10992;48.170;8.596;2022-09-03T06:11:36;14.60;99.90
21662;DHT22;10992;48.170;8.596;2022-09-03T06:14:06;14.50;99.90
21662;DHT22;10992;48.170;8.596;2022-09-03T06:16:36;14.50;99.90
21662;DHT22;10992;48.170;8.596;2022-09-03T06:19:05;14.50;99.90
21662;DHT22;10992;48.170;8.596;2022-09-03T06:21:35;14.40;99.90
21662;DHT22;10992;48.170;8.596;2022-09-03T06:24:03;14.50;99.90
21662;DHT22;10992;48.170;8.596;2022-09-03T06:26:31;14.50;99.90
21662;DHT22;10992;48.170;8.596;2022-09-03T06:28:58;14.50;99.90
21662;DHT22;10992;48.170;8.596;2022-09-03T06:31:26;14.50;99.90
21662;DHT22;10992;48.170;8.596;2022-09-03T06:33:53;14.60;99.90
21662;DHT22;10992;48.170;8.596;2022-09-03T06:36:22;14.70;99.90
21662;DHT22;10992;48.170;8.596;2022-09-03T06:38:54;14.70;99.90
21662;DHT22;10992;48.170;8.596;2022-09-03T06:41:24;14.70;99.90
21662;DHT22;10992;48.170;8.596;2022-09-03T06:43:53;14.70;99.90
21662;DHT22;10992;48.170;8.596;2022-09-03T06:46:22;14.70;99.90
21662;DHT22;10992;48.170;8.596;2022-09-03T06:48:50;14.70;99.90
21662;DHT22;10992;48.170;8.596;2022-09-03T06:51:19;14.70;99.90
21662;DHT22;10992;48.170;8.596;2022-09-03T06:53:51;14.80;99.90
21662;DHT22;10992;48.170;8.596;2022-09-03T06:56:20;15.00;99.90
21662;DHT22;10992;48.170;8.596;2022-09-03T06:58:56;15.00;99.90
21662;DHT22;10992;48.170;8.596;2022-09-03T07:01:28;15.10;99.90
21662;DHT22;10992;48.170;8.596;2022-09-03T07:04:00;15.20;99.90
21662;DHT22;10992;48.170;8.596;2022-09-03T07:06:33;15.60;99.90
21662;DHT22;10992;48.170;8.596;2022-09-03T07:09:03;16.40;99.90
21662;DHT22;10992;48.170;8.596;2022-09-03T07:11:31;17.60;99.90
21662;DHT22;10992;48.170;8.596;2022-09-03T07:13:59;17.70;99.90
21662;DHT22;10992;48.170;8.596;2022-09-03T07:16:28;18.10;99.90
21662;DHT22;10992;48.170;8.596;2022-09-03T07:18:56;19.60;99.90
21662;DHT22;10992;48.170;8.596;2022-09-03T07:21:25;21.30;99.90
21662;DHT22;10992;48.170;8.596;2022-09-03T07:23:53;20.80;99.90
21662;DHT22;10992;48.170;8.596;2022-09-03T07:26:29;20.80;99.90
21662;DHT22;10992;48.170;8.596;2022-09-03T07:28:57;21.00;99.90
21662;DHT22;10992;48.170;8.596;2022-09-03T07:31:27;21.20;99.90
21662;DHT22;10992;48.170;8.596;2022-09-03T07:33:55;21.70;99.90
21662;DHT22;10992;48.170;8.596;2022-09-03T07:36:25;20.90;99.90
21662;DHT22;10992;48.170;8.596;2022-09-03T07:38:57;20.80;99.90
21662;DHT22;10992;48.170;8.596;2022-09-03T07:41:26;20.90;99.90
21662;DHT22;10992;48.170;8.596;2022-09-03T07:43:54;20.20;99.90
21662;DHT22;10992;48.170;8.596;2022-09-03T07:46:25;20.60;99.90
21662;DHT22;10992;48.170;8.596;2022-09-03T07:48:55;21.00;99.90
21662;DHT22;10992;48.170;8.596;2022-09-03T07:51:24;21.70;99.90
21662;DHT22;10992;48.170;8.596;2022-09-03T07:54:03;21.50;99.90
21662;DHT22;10992;48.170;8.596;2022-09-03T07:56:33;21.80;99.90
21662;DHT22;10992;48.170;8.596;2022-09-03T07:59:02;21.90;99.90
21662;DHT22;10992;48.170;8.596;2022-09-03T08:01:31;22.30;99.90
21662;DHT22;10992;48.170;8.596;2022-09-03T08:03:59;23.70;99.90
21662;DHT22;10992;48.170;8.596;2022-09-03T08:06:28;23.50;99.90
21662;DHT22;10992;48.170;8.596;2022-09-03T08:08:58;23.10;99.90
21662;DHT22;10992;48.170;8.596;2022-09-03T08:11:35;23.50;99.90
21662;DHT22;10992;48.170;8.596;2022-09-03T08:14:05;23.40;99.90
21662;DHT22;10992;48.170;8.596;2022-09-03T08:16:39;23.10;99.90
21662;DHT22;10992;48.170;8.596;2022-09-03T08:19:08;23.70;99.90
21662;DHT22;10992;48.170;8.596;2022-09-03T08:21:37;22.90;99.90
21662;DHT22;10992;48.170;8.596;2022-09-03T08:24:05;22.70;99.90
21662;DHT22;10992;48.170;8.596;2022-09-03T08:26:34;23.00;99.90
21662;DHT22;10992;48.170;8.596;2022-09-03T08:29:02;22.80;99.90
21662;DHT22;10992;48.170;8.596;2022-09-03T08:31:31;23.60;99.90
21662;DHT22;10992;48.170;8.596;2022-09-03T08:34:00;24.40;99.90
21662;DHT22;10992;48.170;8.596;2022-09-03T08:36:35;24.20;99.90
21662;DHT22;10992;48.170;8.596;2022-09-03T08:39:04;24.00;99.90
21662;DHT22;10992;48.170;8.596;2022-09-03T08:47:05;24.40;99.90
21662;DHT22;10992;48.170;8.596;2022-09-03T08:54:48;22.50;99.90
21662;DHT22;10992;48.170;8.596;2022-09-03T08:57:18;22.20;99.90
21662;DHT22;10992;48.170;8.596;2022-09-03T08:59:51;22.30;99.90
21662;DHT22;10992;48.170;8.596;2022-09-03T09:05:16;23.00;99.90
21662;DHT22;10992;48.170;8.596;2022-09-03T09:10:55;24.00;99.90
21662;DHT22;10992;48.170;8.596;2022-09-03T09:13:27;24.40;99.90
21662;DHT22;10992;48.170;8.596;2022-09-03T09:22:02;23.60;99.90
21662;DHT22;10992;48.170;8.596;2022-09-03T09:24:39;23.70;99.90
21662;DHT22;10992;48.170;8.596;2022-09-03T09:27:07;23.50;99.90
21662;DHT22;10992;48.170;8.596;2022-09-03T09:29:44;22.70;99.90
21662;DHT22;10992;48.170;8.596;2022-09-03T09:32:13;22.30;99.90
21662;DHT22;10992;48.170;8.596;2022-09-03T09:34:44;22.80;99.90
21662;DHT22;10992;48.170;8.596;2022-09-03T09:37:17;22.40;99.90
21662;DHT22;10992;48.170;8.596;2022-09-03T09:39:59;22.10;99.90
21662;DHT22;10992;48.170;8.596;2022-09-03T09:42:26;21.90;99.90
21662;DHT22;10992;48.170;8.596;2022-09-03T09:45:08;22.10;99.90
21662;DHT22;10992;48.170;8.596;2022-09-03T09:47:38;21.90;99.90
21662;DHT22;10992;48.170;8.596;2022-09-03T09:50:17;21.80;99.90
21662;DHT22;10992;48.170;8.596;2022-09-03T09:53:21;21.90;99.90
21662;DHT22;10992;48.170;8.596;2022-09-03T09:55:57;21.60;99.90
21662;DHT22;10992;48.170;8.596;2022-09-03T09:58:26;21.30;99.90
21662;DHT22;10992;48.170;8.596;2022-09-03T10:01:00;21.00;99.90
21662;DHT22;10992;48.170;8.596;2022-09-03T10:03:33;20.60;99.90
21662;DHT22;10992;48.170;8.596;2022-09-03T10:06:05;20.60;99.90
21662;DHT22;10992;48.170;8.596;2022-09-03T10:09:04;20.50;99.90
21662;DHT22;10992;48.170;8.596;2022-09-03T10:11:34;20.20;99.90
21662;DHT22;10992;48.170;8.596;2022-09-03T10:14:20;20.00;99.90
21662;DHT22;10992;48.170;8.596;2022-09-03T10:16:55;19.80;99.90
21662;DHT22;10992;48.170;8.596;2022-09-03T10:19:39;19.50;99.90
21662;DHT22;10992;48.170;8.596;2022-09-03T10:22:13;19.40;99.90
21662;DHT22;10992;48.170;8.596;2022-09-03T10:24:58;19.30;99.90
21662;DHT22;10992;48.170;8.596;2022-09-03T10:27:26;19.10;99.90
21662;DHT22;10992;48.170;8.596;2022-09-03T10:29:57;19.20;99.90
21662;DHT22;10992;48.170;8.596;2022-09-03T10:35:34;18.80;99.90
21662;DHT22;10992;48.170;8.596;2022-09-03T10:38:15;18.70;99.90
21662;DHT22;10992;48.170;8.596;2022-09-03T10:40:51;18.60;99.90
21662;DHT22;10992;48.170;8.596;2022-09-03T10:43:44;18.40;99.90
21662;DHT22;10992;48.170;8.596;2022-09-03T10:47:00;17.30;99.90
21662;DHT22;10992;48.170;8.596;2022-09-03T10:50:25;16.10;99.90
21662;DHT22;10992;48.170;8.596;2022-09-03T11:00:57;14.70;99.90
21662;DHT22;10992;48.170;8.596;2022-09-03T11:07:16;14.70;99.90
21662;DHT22;10992;48.170;8.596;2022-09-03T11:12:01;14.80;99.90
21662;DHT22;10992;48.170;8.596;2022-09-03T11:14:34;14.70;99.90
21662;DHT22;10992;48.170;8.596;2022-09-03T11:17:28;14.80;99.90
21662;DHT22;10992;48.170;8.596;2022-09-03T11:22:37;15.10;99.90
21662;DHT22;10992;48.170;8.596;2022-09-03T11:25:06;15.30;99.90
21662;DHT22;10992;48.170;8.596;2022-09-03T11:30:12;16.30;99.90
21662;DHT22;10992;48.170;8.596;2022-09-03T11:32:51;16.80;99.90
21662;DHT22;10992;48.170;8.596;2022-09-03T11:38:20;17.40;99.90
21662;DHT22;10992;48.170;8.596;2022-09-03T11:46:25;17.70;99.90
21662;DHT22;10992;48.170;8.596;2022-09-03T11:48:52;17.60;99.90
21662;DHT22;10992;48.170;8.596;2022-09-03T11:54:00;18.00;99.90
21662;DHT22;10992;48.170;8.596;2022-09-03T11:56:30;17.90;99.90
21662;DHT22;10992;48.170;8.596;2022-09-03T11:59:23;18.00;99.90
21662;DHT22;10992;48.170;8.596;2022-09-03T12:07:38;18.40;99.90
21662;DHT22;10992;48.170;8.596;2022-09-03T12:10:19;18.70;99.90
21662;DHT22;10992;48.170;8.596;2022-09-03T12:18:08;18.50;99.90
21662;DHT22;10992;48.170;8.596;2022-09-03T12:26:07;18.80;99.90
21662;DHT22;10992;48.170;8.596;2022-09-03T12:28:37;18.80;99.90
21662;DHT22;10992;48.170;8.596;2022-09-03T12:31:22;19.00;99.90
21662;DHT22;10992;48.170;8.596;2022-09-03T12:33:51;19.60;99.90
21662;DHT22;10992;48.170;8.596;2022-09-03T12:36:21;19.80;99.90
21662;DHT22;10992;48.170;8.596;2022-09-03T12:38:49;20.00;99.90
21662;DHT22;10992;48.170;8.596;2022-09-03T12:41:36;20.40;99.90
21662;DHT22;10992;48.170;8.596;2022-09-03T12:44:04;20.90;99.90
21662;DHT22;10992;48.170;8.596;2022-09-03T12:46:32;20.90;99.90
21662;DHT22;10992;48.170;8.596;2022-09-03T12:49:04;21.40;99.90
21662;DHT22;10992;48.170;8.596;2022-09-03T12:52:04;21.80;99.90
21662;DHT22;10992;48.170;8.596;2022-09-03T12:54:43;22.40;99.90
21662;DHT22;10992;48.170;8.596;2022-09-03T12:57:20;22.30;99.90
21662;DHT22;10992;48.170;8.596;2022-09-03T12:59:49;22.20;99.90
21662;DHT22;10992;48.170;8.596;2022-09-03T13:02:25;22.70;99.90
21662;DHT22;10992;48.170;8.596;2022-09-03T13:04:54;23.00;99.90
21662;DHT22;10992;48.170;8.596;2022-09-03T13:07:29;23.00;99.90
21662;DHT22;10992;48.170;8.596;2022-09-03T13:10:04;22.60;99.90
21662;DHT22;10992;48.170;8.596;2022-09-03T13:12:42;22.30;99.90
21662;DHT22;10992;48.170;8.596;2022-09-03T13:15:25;22.80;99.90
21662;DHT22;10992;48.170;8.596;2022-09-03T13:18:00;22.90;99.90
21662;DHT22;10992;48.170;8.596;2022-09-03T13:21:00;22.20;99.90
21662;DHT22;10992;48.170;8.596;2022-09-03T13:29:38;23.60;99.90
21662;DHT22;10992;48.170;8.596;2022-09-03T13:34:58;21.60;99.90
21662;DHT22;10992;48.170;8.596;2022-09-03T13:43:58;22.00;99.90
21662;DHT22;10992;48.170;8.596;2022-09-03T13:46:32;22.20;99.90
21662;DHT22;10992;48.170;8.596;2022-09-03T13:49:26;23.00;99.90
21662;DHT22;10992;48.170;8.596;2022-09-03T13:55:11;23.70;99.90
21662;DHT22;10992;48.170;8.596;2022-09-03T14:00:45;22.80;99.90
21662;DHT22;10992;48.170;8.596;2022-09-03T14:03:31;23.50;99.90
21662;DHT22;10992;48.170;8.596;2022-09-03T14:09:23;23.40;99.90
21662;DHT22;10992;48.170;8.596;2022-09-03T14:12:16;22.90;99.90
21662;DHT22;10992;48.170;8.596;2022-09-03T14:14:53;22.80;99.90
21662;DHT22;10992;48.170;8.596;2022-09-03T14:20:21;22.70;99.90
21662;DHT22;10992;48.170;8.596;2022-09-03T14:23:23;23.00;99.90
21662;DHT22;10992;48.170;8.596;2022-09-03T14:25:54;22.90;99.90
21662;DHT22;10992;48.170;8.596;2022-09-03T14:28:29;22.70;99.90
21662;DHT22;10992;48.170;8.596;2022-09-03T14:34:18;22.70;99.90
21662;DHT22;10992;48.170;8.596;2022-09-03T14:37:17;22.10;99.90
21662;DHT22;10992;48.170;8.596;2022-09-03T14:40:12;22.20;99.90
21662;DHT22;10992;48.170;8.596;2022-09-03T14:48:34;22.30;99.90
21662;DHT22;10992;48.170;8.596;2022-09-03T14:54:14;21.70;99.90
21662;DHT22;10992;48.170;8.596;2022-09-03T14:57:01;21.90;99.90
21662;DHT22;10992;48.170;8.596;2022-09-03T15:07:54;21.60;99.90
21662;DHT22;10992;48.170;8.596;2022-09-03T15:10:35;21.80;99.90
21662;DHT22;10992;48.170;8.596;2022-09-03T15:13:19;21.70;99.90
21662;DHT22;10992;48.170;8.596;2022-09-03T15:18:36;21.30;99.90
21662;DHT22;10992;48.170;8.596;2022-09-03T15:24:20;21.40;99.90
21662;DHT22;10992;48.170;8.596;2022-09-03T15:38:40;20.80;99.90
21662;DHT22;10992;48.170;8.596;2022-09-03T15:41:35;20.70;99.90
21662;DHT22;10992;48.170;8.596;2022-09-03T15:44:16;20.70;99.90
21662;DHT22;10992;48.170;8.596;2022-09-03T15:47:07;20.90;99.90
21662;DHT22;10992;48.170;8.596;2022-09-03T15:49:53;21.40;99.90
21662;DHT22;10992;48.170;8.596;2022-09-03T15:55:13;21.90;99.90
21662;DHT22;10992;48.170;8.596;2022-09-03T15:57:52;21.90;99.90
21662;DHT22;10992;48.170;8.596;2022-09-03T16:00:38;21.70;99.90
21662;DHT22;10992;48.170;8.596;2022-09-03T16:03:12;21.40;99.90
21662;DHT22;10992;48.170;8.596;2022-09-03T16:05:56;21.10;99.90
21662;DHT22;10992;48.170;8.596;2022-09-03T16:16:49;20.90;99.90
21662;DHT22;10992;48.170;8.596;2022-09-03T16:19:37;21.10;99.90
21662;DHT22;10992;48.170;8.596;2022-09-03T16:25:11;21.40;99.90
21662;DHT22;10992;48.170;8.596;2022-09-03T16:27:56;21.30;99.90
21662;DHT22;10992;48.170;8.596;2022-09-03T16:33:15;20.90;99.90
21662;DHT22;10992;48.170;8.596;2022-09-03T16:38:51;21.10;99.90
21662;DHT22;10992;48.170;8.596;2022-09-03T16:41:35;21.20;99.90
21662;DHT22;10992;48.170;8.596;2022-09-03T16:46:48;21.00;99.90
21662;DHT22;10992;48.170;8.596;2022-09-03T16:52:31;20.80;99.90
21662;DHT22;10992;48.170;8.596;2022-09-03T17:01:01;20.60;99.90
21662;DHT22;10992;48.170;8.596;2022-09-03T17:07:07;20.40;99.90
21662;DHT22;10992;48.170;8.596;2022-09-03T17:25:39;19.50;99.90
21662;DHT22;10992;48.170;8.596;2022-09-03T17:34:10;19.10;99.90
21662;DHT22;10992;48.170;8.596;2022-09-03T17:43:12;18.80;99.90
21662;DHT22;10992;48.170;8.596;2022-09-03T17:50:50;18.30;99.90
21662;DHT22;10992;48.170;8.596;2022-09-03T17:53:22;18.20;99.90
21662;DHT22;10992;48.170;8.596;2022-09-03T17:55:56;18.20;99.90
21662;DHT22;10992;48.170;8.596;2022-09-03T17:58:44;18.10;99.90
21662;DHT22;10992;48.170;8.596;2022-09-03T18:01:25;18.10;99.90
21662;DHT22;10992;48.170;8.596;2022-09-03T18:07:04;17.60;99.90
21662;DHT22;10992;48.170;8.596;2022-09-03T18:09:56;17.50;99.90
21662;DHT22;10992;48.170;8.596;2022-09-03T18:15:03;17.00;99.90
21662;DHT22;10992;48.170;8.596;2022-09-03T18:17:38;17.00;99.90
21662;DHT22;10992;48.170;8.596;2022-09-03T18:20:12;16.90;99.90
21662;DHT22;10992;48.170;8.596;2022-09-03T18:23:21;16.90;99.90
21662;DHT22;10992;48.170;8.596;2022-09-03T18:26:18;16.70;99.90
21662;DHT22;10992;48.170;8.596;2022-09-03T18:29:14;16.50;99.90
21662;DHT22;10992;48.170;8.596;2022-09-03T18:32:01;16.40;99.90
21662;DHT22;10992;48.170;8.596;2022-09-03T18:34:47;16.30;99.90
21662;DHT22;10992;48.170;8.596;2022-09-03T18:37:32;16.30;99.90
21662;DHT22;10992;48.170;8.596;2022-09-03T18:40:27;16.30;99.90
21662;DHT22;10992;48.170;8.596;2022-09-03T18:43:42;16.20;99.90
21662;DHT22;10992;48.170;8.596;2022-09-03T18:46:58;16.10;99.90
21662;DHT22;10992;48.170;8.596;2022-09-03T18:59:18;15.90;99.90
21662;DHT22;10992;48.170;8.596;2022-09-03T19:02:26;16.10;99.90
21662;DHT22;10992;48.170;8.596;2022-09-03T19:08:40;16.00;99.90
21662;DHT22;10992;48.170;8.596;2022-09-03T19:11:33;15.80;99.90
21662;DHT22;10992;48.170;8.596;2022-09-03T19:18:20;15.70;99.90
21662;DHT22;10992;48.170;8.596;2022-09-03T19:21:21;15.60;99.90
21662;DHT22;10992;48.170;8.596;2022-09-03T19:24:12;15.60;99.90
21662;DHT22;10992;48.170;8.596;2022-09-03T19:27:08;15.70;99.90
21662;DHT22;10992;48.170;8.596;2022-09-03T19:30:20;15.80;99.90
21662;DHT22;10992;48.170;8.596;2022-09-03T19:33:26;15.80;99.90
21662;DHT22;10992;48.170;8.596;2022-09-03T19:52:03;16.10;99.90
21662;DHT22;10992;48.170;8.596;2022-09-03T19:54:55;16.10;99.90
21662;DHT22;10992;48.170;8.596;2022-09-03T19:57:44;16.10;99.90
21662;DHT22;10992;48.170;8.596;2022-09-03T20:00:52;16.00;99.90
21662;DHT22;10992;48.170;8.596;2022-09-03T20:03:38;15.90;99.90
21662;DHT22;10992;48.170;8.596;2022-09-03T20:06:25;15.90;99.90
21662;DHT22;10992;48.170;8.596;2022-09-03T20:09:12;15.80;99.90
21662;DHT22;10992;48.170;8.596;2022-09-03T20:12:03;15.80;99.90
21662;DHT22;10992;48.170;8.596;2022-09-03T20:14:36;15.70;99.90
21662;DHT22;10992;48.170;8.596;2022-09-03T20:22:52;15.40;99.90
21662;DHT22;10992;48.170;8.596;2022-09-03T20:25:40;15.60;99.90
21662;DHT22;10992;48.170;8.596;2022-09-03T20:36:33;14.90;99.90
21662;DHT22;10992;48.170;8.596;2022-09-03T20:39:23;14.90;99.90
21662;DHT22;10992;48.170;8.596;2022-09-03T20:50:51;14.70;99.90
21662;DHT22;10992;48.170;8.596;2022-09-03T20:56:07;14.70;99.90
21662;DHT22;10992;48.170;8.596;2022-09-03T20:58:48;14.60;99.90
21662;DHT22;10992;48.170;8.596;2022-09-03T21:01:49;14.40;99.90
21662;DHT22;10992;48.170;8.596;2022-09-03T21:04:40;14.40;99.90
21662;DHT22;10992;48.170;8.596;2022-09-03T21:11:00;14.50;99.90
21662;DHT22;10992;48.170;8.596;2022-09-03T21:13:40;14.50;99.90
21662;DHT22;10992;48.170;8.596;2022-09-03T21:23:47;14.30;99.90
21662;DHT22;10992;48.170;8.596;2022-09-03T21:26:19;14.20;99.90
21662;DHT22;10992;48.170;8.596;2022-09-03T21:29:10;14.20;99.90
21662;DHT22;10992;48.170;8.596;2022-09-03T21:31:40;14.10;99.90
21662;DHT22;10992;48.170;8.596;2022-09-03T21:34:18;13.90;99.90
21662;DHT22;10992;48.170;8.596;2022-09-03T21:36:48;13.90;99.90
21662;DHT22;10992;48.170;8.596;2022-09-03T21:39:24;13.70;99.90
21662;DHT22;10992;48.170;8.596;2022-09-03T21:41:56;13.60;99.90
21662;DHT22;10992;48.170;8.596;2022-09-03T21:47:11;13.50;99.90
21662;DHT22;10992;48.170;8.596;2022-09-03T21:49:59;13.40;99.90
21662;DHT22;10992;48.170;8.596;2022-09-03T21:52:52;13.40;99.90
21662;DHT22;10992;48.170;8.596;2022-09-03T21:58:15;13.30;99.90
21662;DHT22;10992;48.170;8.596;2022-09-03T22:00:45;13.30;99.90
21662;DHT22;10992;48.170;8.596;2022-09-03T22:03:14;13.40;99.90
21662;DHT22;10992;48.170;8.596;2022-09-03T22:11:28;13.30;99.90